createdAt,value
2023-03-11T00:00:50.713Z,15.07
2023-03-11T00:03:18.489Z,15.37
2023-03-11T00:05:46.241Z,15.46
2023-03-11T00:08:15.495Z,15.25
2023-03-11T00:10:42.990Z,14.87
2023-03-11T00:13:10.601Z,14.92
2023-03-11T00:15:37.617Z,14.69
2023-03-11T00:18:04.944Z,14.63
2023-03-11T00:20:33.164Z,14.54
2023-03-11T00:22:59.867Z,14.75
2023-03-11T00:25:27.511Z,14.75
2023-03-11T00:27:54.503Z,14.56
2023-03-11T00:30:21.917Z,14.66
2023-03-11T00:32:49.353Z,14.02
2023-03-11T00:35:17.328Z,14.02
2023-03-11T00:37:45.721Z,14.06
2023-03-11T00:40:13.946Z,14.69
2023-03-11T00:42:40.847Z,14.14
2023-03-11T00:45:07.783Z,14.33
2023-03-11T00:47:34.559Z,14.54
2023-03-11T00:50:01.392Z,14.21
2023-03-11T00:52:29.001Z,14.33
2023-03-11T00:54:56.063Z,14.67
2023-03-11T00:57:22.831Z,14.25
2023-03-11T00:59:49.426Z,13.55
2023-03-11T01:02:16.464Z,14.38
2023-03-11T01:04:43.098Z,14.76
2023-03-11T01:07:11.300Z,15.09
2023-03-11T01:09:38.259Z,15.16
2023-03-11T01:12:05.124Z,15.22
2023-03-11T01:14:31.918Z,15.30
2023-03-11T01:16:58.562Z,15.23
2023-03-11T01:19:25.140Z,14.84
2023-03-11T01:21:53.987Z,15.06
2023-03-11T01:24:20.722Z,15.05
2023-03-11T01:26:47.370Z,15.21
2023-03-11T01:29:14.032Z,15.34
2023-03-11T01:31:40.703Z,15.01
2023-03-11T01:34:07.444Z,15.09
2023-03-11T01:36:34.330Z,15.04
2023-03-11T01:39:00.914Z,15.16
2023-03-11T01:41:27.700Z,15.18
2023-03-11T01:43:54.803Z,14.94
2023-03-11T01:46:26.391Z,14.85
2023-03-11T01:48:57.890Z,15.07
2023-03-11T01:51:35.907Z,14.98
2023-03-11T01:54:05.569Z,14.96
2023-03-11T01:56:33.031Z,14.93
2023-03-11T01:59:00.231Z,14.72
2023-03-11T02:01:27.028Z,14.78
2023-03-11T02:03:55.312Z,14.55
2023-03-11T02:06:23.725Z,14.49
2023-03-11T02:08:51.290Z,14.85
2023-03-11T02:11:24.921Z,14.76
2023-03-11T02:13:54.569Z,14.46
2023-03-11T02:16:21.301Z,14.74
2023-03-11T02:18:48.225Z,14.83
2023-03-11T02:21:26.933Z,14.79
2023-03-11T02:24:14.165Z,14.83
2023-03-11T02:26:44.471Z,14.92
2023-03-11T02:29:12.098Z,14.23
2023-03-11T02:31:43.099Z,14.73
2023-03-11T02:34:16.134Z,14.48
2023-03-11T02:36:43.016Z,14.59
2023-03-11T02:39:12.990Z,14.40
2023-03-11T02:41:41.805Z,14.00
2023-03-11T02:44:10.617Z,14.42
2023-03-11T02:46:38.950Z,14.08
2023-03-11T02:49:06.416Z,14.30
2023-03-11T02:51:33.725Z,14.50
2023-03-11T02:54:03.347Z,13.87
2023-03-11T02:56:30.855Z,14.09
2023-03-11T02:58:59.120Z,13.78
2023-03-11T03:01:25.899Z,14.10
2023-03-11T03:03:53.144Z,14.30
2023-03-11T03:06:19.985Z,14.37
2023-03-11T03:08:50.962Z,14.36
2023-03-11T03:11:17.760Z,14.70
2023-03-11T03:13:46.063Z,14.65
2023-03-11T03:16:12.857Z,14.62
2023-03-11T03:18:39.826Z,14.74
2023-03-11T03:21:08.064Z,14.65
2023-03-11T03:23:37.668Z,14.83
2023-03-11T03:26:05.901Z,14.72
2023-03-11T03:28:35.677Z,14.64
2023-03-11T03:31:07.035Z,14.66
2023-03-11T03:33:34.837Z,14.75
2023-03-11T03:36:05.750Z,14.75
2023-03-11T03:38:38.319Z,14.64
2023-03-11T03:41:05.117Z,14.64
2023-03-11T03:43:33.392Z,14.80
2023-03-11T03:46:04.882Z,14.58
2023-03-11T03:48:38.469Z,14.80
2023-03-11T03:51:08.399Z,14.79
2023-03-11T03:53:37.007Z,14.69
2023-03-11T03:56:04.996Z,14.49
2023-03-11T03:58:33.469Z,14.64
2023-03-11T04:01:00.301Z,14.51
2023-03-11T04:03:27.775Z,14.67
2023-03-11T04:06:25.952Z,14.87
2023-03-11T04:08:57.863Z,14.91
2023-03-11T04:11:29.145Z,14.68
2023-03-11T04:13:56.764Z,14.81
2023-03-11T04:16:24.447Z,13.79
2023-03-11T04:18:57.203Z,13.33
2023-03-11T04:21:24.252Z,14.28
2023-03-11T04:23:51.056Z,14.13
2023-03-11T04:26:21.389Z,14.21
2023-03-11T04:28:48.199Z,14.32
2023-03-11T04:31:15.295Z,14.39
2023-03-11T04:33:42.264Z,13.59
2023-03-11T04:36:10.556Z,13.77
2023-03-11T04:38:38.185Z,14.01
2023-03-11T04:41:07.354Z,14.22
2023-03-11T04:43:36.504Z,14.10
2023-03-11T04:46:03.458Z,14.33
2023-03-11T04:48:30.185Z,14.17
2023-03-11T04:50:57.072Z,14.37
2023-03-11T04:53:24.237Z,14.32
2023-03-11T04:55:52.464Z,13.84
2023-03-11T04:58:19.785Z,14.51
2023-03-11T05:00:47.618Z,14.54
2023-03-11T05:03:15.373Z,14.55
2023-03-11T05:05:42.204Z,14.82
2023-03-11T05:08:09.771Z,14.84
2023-03-11T05:10:36.845Z,14.76
2023-03-11T05:13:06.125Z,14.50
2023-03-11T05:15:37.618Z,14.76
2023-03-11T05:18:05.780Z,14.30
2023-03-11T05:20:34.540Z,13.78
2023-03-11T05:23:01.787Z,13.98
2023-03-11T05:25:30.372Z,14.53
2023-03-11T05:27:57.493Z,14.63
2023-03-11T05:30:24.331Z,14.62
2023-03-11T05:32:51.939Z,14.78
2023-03-11T05:35:18.724Z,14.32
2023-03-11T05:37:45.659Z,14.36
2023-03-11T05:40:13.493Z,14.38
2023-03-11T05:42:41.843Z,14.58
2023-03-11T05:45:10.716Z,14.86
2023-03-11T05:47:39.150Z,14.79
2023-03-11T05:50:06.576Z,15.11
2023-03-11T05:52:33.967Z,15.61
2023-03-11T05:55:00.932Z,15.46
2023-03-11T05:57:29.593Z,14.78
2023-03-11T05:59:56.965Z,14.67
2023-03-11T06:02:24.631Z,14.64
2023-03-11T06:04:51.419Z,14.69
2023-03-11T06:07:18.621Z,14.60
2023-03-11T06:09:49.705Z,15.33
2023-03-11T06:12:18.366Z,15.09
2023-03-11T06:15:03.316Z,15.65
2023-03-11T06:17:30.622Z,15.57
2023-03-11T06:19:57.872Z,15.11
2023-03-11T06:22:25.527Z,15.04
2023-03-11T06:24:52.211Z,14.63
2023-03-11T06:27:19.187Z,14.95
2023-03-11T06:29:48.294Z,14.75
2023-03-11T06:32:15.708Z,14.49
2023-03-11T06:34:42.472Z,14.85
2023-03-11T06:37:09.290Z,15.07
2023-03-11T06:39:35.960Z,15.27
2023-03-11T06:42:02.597Z,15.28
2023-03-11T06:44:29.919Z,15.24
2023-03-11T06:46:56.879Z,15.04
2023-03-11T06:49:23.594Z,15.34
2023-03-11T06:51:50.421Z,15.53
2023-03-11T06:54:17.683Z,15.22
2023-03-11T06:56:45.051Z,15.47
2023-03-11T06:59:14.333Z,15.56
2023-03-11T07:01:41.168Z,15.77
2023-03-11T07:04:10.456Z,15.68
2023-03-11T07:06:39.247Z,15.35
2023-03-11T07:09:11.296Z,15.18
2023-03-11T07:11:42.497Z,14.63
2023-03-11T07:14:13.166Z,15.02
2023-03-11T07:16:44.098Z,14.16
2023-03-11T07:19:18.940Z,14.36
2023-03-11T07:21:45.609Z,14.62
2023-03-11T07:24:14.236Z,14.84
2023-03-11T07:26:42.649Z,15.40
2023-03-11T07:29:10.857Z,15.87
2023-03-11T07:31:38.251Z,15.66
2023-03-11T07:34:11.081Z,15.53
2023-03-11T07:36:39.599Z,15.84
2023-03-11T07:39:06.722Z,16.12
2023-03-11T07:41:34.322Z,16.20
2023-03-11T07:44:01.585Z,16.29
2023-03-11T07:46:29.156Z,15.95
2023-03-11T07:48:55.799Z,15.99
2023-03-11T07:51:24.546Z,16.44
2023-03-11T07:53:52.509Z,16.69
2023-03-11T07:56:20.295Z,16.32
2023-03-11T07:58:47.029Z,16.38
2023-03-11T08:01:17.818Z,15.95
2023-03-11T08:03:45.621Z,16.30
2023-03-11T08:06:22.461Z,16.88
2023-03-11T08:08:49.186Z,17.38
2023-03-11T08:11:16.436Z,17.57
2023-03-11T08:13:43.712Z,16.89
2023-03-11T08:16:11.819Z,16.51
2023-03-11T08:18:38.616Z,16.48
2023-03-11T08:21:06.044Z,16.93
2023-03-11T08:23:33.801Z,16.79
2023-03-11T08:26:04.642Z,17.43
2023-03-11T08:28:31.499Z,17.78
2023-03-11T08:30:58.103Z,18.45
2023-03-11T08:33:24.973Z,17.75
2023-03-11T08:35:51.666Z,17.98
2023-03-11T08:38:18.530Z,18.63
2023-03-11T08:40:45.096Z,18.52
2023-03-11T08:43:15.073Z,17.54
2023-03-11T08:45:41.945Z,17.49
2023-03-11T08:48:10.594Z,17.22
2023-03-11T08:50:52.970Z,17.82
2023-03-11T08:53:21.476Z,17.55
2023-03-11T08:55:48.104Z,18.19
2023-03-11T08:58:14.695Z,18.76
2023-03-11T09:00:41.389Z,19.17
2023-03-11T09:03:08.121Z,18.65
2023-03-11T09:05:34.973Z,18.71
2023-03-11T09:08:04.976Z,19.03
2023-03-11T09:10:32.375Z,19.55
2023-03-11T09:12:58.896Z,19.12
2023-03-11T09:15:25.576Z,19.55
2023-03-11T09:17:53.089Z,19.40
2023-03-11T09:20:20.387Z,19.19
2023-03-11T09:22:47.381Z,18.96
2023-03-11T09:25:16.241Z,19.11
2023-03-11T09:27:43.214Z,18.57
2023-03-11T09:30:10.251Z,18.72
2023-03-11T09:32:37.171Z,18.44
2023-03-11T09:35:04.209Z,18.38
2023-03-11T09:37:30.829Z,18.52
2023-03-11T09:39:57.529Z,18.01
2023-03-11T09:42:33.045Z,18.76
2023-03-11T09:45:17.063Z,19.27
2023-03-11T09:48:02.061Z,18.85
2023-03-11T09:50:34.774Z,18.82
2023-03-11T09:53:13.781Z,19.75
2023-03-11T09:55:40.582Z,20.20
2023-03-11T09:58:15.804Z,20.30
2023-03-11T10:00:42.708Z,20.14
2023-03-11T10:03:38.644Z,20.12
2023-03-11T10:06:26.907Z,21.12
2023-03-11T10:09:03.092Z,21.11
2023-03-11T10:11:32.791Z,20.30
2023-03-11T10:14:10.253Z,20.18
2023-03-11T10:16:39.763Z,19.85
2023-03-11T10:19:45.011Z,18.65
2023-03-11T10:22:20.390Z,19.66
2023-03-11T10:24:58.775Z,20.01
2023-03-11T10:27:30.196Z,18.90
2023-03-11T10:29:59.769Z,19.09
2023-03-11T10:32:34.181Z,19.94
2023-03-11T10:35:06.041Z,20.53
2023-03-11T10:37:48.861Z,20.21
2023-03-11T10:40:31.422Z,19.50
2023-03-11T10:43:00.716Z,19.09
2023-03-11T10:45:38.039Z,19.03
2023-03-11T10:48:11.967Z,19.57
2023-03-11T10:50:42.920Z,18.74
2023-03-11T10:53:11.249Z,18.69
2023-03-11T10:55:45.749Z,18.48
2023-03-11T10:58:13.785Z,18.12
2023-03-11T11:00:40.489Z,18.32
2023-03-11T11:03:16.871Z,18.43
2023-03-11T11:05:43.640Z,18.73
2023-03-11T11:08:14.062Z,18.79
2023-03-11T11:10:54.221Z,18.83
2023-03-11T11:13:22.284Z,18.98
2023-03-11T11:15:56.950Z,18.61
2023-03-11T11:18:25.668Z,18.85
2023-03-11T11:21:12.486Z,18.59
2023-03-11T11:23:39.631Z,18.92
2023-03-11T11:26:08.978Z,19.58
2023-03-11T11:28:35.851Z,19.78
2023-03-11T11:31:04.282Z,19.88
2023-03-11T11:33:32.440Z,19.65
2023-03-11T11:36:03.707Z,19.29
2023-03-11T11:38:32.569Z,19.26
2023-03-11T11:41:01.690Z,19.60
2023-03-11T11:43:34.519Z,19.03
2023-03-11T11:46:05.608Z,19.37
2023-03-11T11:48:44.926Z,18.31
2023-03-11T11:51:35.250Z,18.35
2023-03-11T11:54:25.255Z,19.23
2023-03-11T11:56:51.940Z,19.32
2023-03-11T11:59:20.291Z,20.12
2023-03-11T12:01:47.025Z,20.11
2023-03-11T12:04:19.622Z,19.72
2023-03-11T12:06:54.241Z,20.05
2023-03-11T12:09:24.339Z,19.26
2023-03-11T12:12:01.618Z,19.77
2023-03-11T12:14:36.990Z,19.91
2023-03-11T12:17:04.796Z,19.66
2023-03-11T12:19:37.492Z,19.99
2023-03-11T12:22:21.440Z,20.31
2023-03-11T12:25:06.995Z,20.30
2023-03-11T12:27:37.571Z,20.25
2023-03-11T12:30:15.166Z,20.34
2023-03-11T12:32:48.156Z,20.54
2023-03-11T12:35:24.336Z,20.42
2023-03-11T12:38:13.263Z,19.82
2023-03-11T12:40:50.640Z,19.10
2023-03-11T12:43:29.958Z,19.20
2023-03-11T12:46:01.042Z,19.21
2023-03-11T12:48:36.885Z,19.35
2023-03-11T12:51:05.645Z,19.58
2023-03-11T12:53:43.501Z,18.54
2023-03-11T12:56:35.686Z,18.54
2023-03-11T12:59:33.409Z,19.20
2023-03-11T13:02:24.601Z,19.19
2023-03-11T13:04:59.752Z,18.74
2023-03-11T13:07:39.946Z,19.15
2023-03-11T13:10:21.577Z,19.46
2023-03-11T13:12:50.789Z,18.69
2023-03-11T13:15:39.522Z,18.78
2023-03-11T13:18:23.412Z,18.81
2023-03-11T13:20:59.329Z,18.82
2023-03-11T13:23:28.283Z,18.90
2023-03-11T13:25:54.918Z,18.20
2023-03-11T13:28:52.706Z,17.81
2023-03-11T13:31:38.413Z,18.07
2023-03-11T13:34:41.779Z,17.94
2023-03-11T13:37:29.082Z,17.91
2023-03-11T13:40:23.628Z,17.60
2023-03-11T13:42:54.457Z,17.29
2023-03-11T13:45:36.244Z,17.48
2023-03-11T13:48:18.744Z,17.34
2023-03-11T13:50:56.831Z,17.10
2023-03-11T13:53:34.428Z,17.05
2023-03-11T13:56:01.424Z,16.91
2023-03-11T13:58:29.102Z,16.78
2023-03-11T14:00:59.058Z,16.17
2023-03-11T14:03:34.125Z,16.24
2023-03-11T14:06:03.857Z,16.34
2023-03-11T14:08:41.196Z,16.59
2023-03-11T14:11:11.145Z,16.74
2023-03-11T14:13:46.297Z,16.20
2023-03-11T14:16:23.883Z,16.19
2023-03-11T14:19:12.320Z,16.04
2023-03-11T14:21:44.314Z,15.87
2023-03-11T14:24:20.620Z,15.64
2023-03-11T14:26:48.704Z,16.30
2023-03-11T14:29:20.860Z,16.12
2023-03-11T14:31:48.160Z,16.55
2023-03-11T14:34:21.522Z,16.69
2023-03-11T14:37:00.110Z,17.15
2023-03-11T14:39:32.640Z,17.40
2023-03-11T14:42:07.896Z,17.09
2023-03-11T14:44:42.965Z,17.17
2023-03-11T14:47:18.659Z,17.16
2023-03-11T14:49:47.630Z,17.22
2023-03-11T14:52:21.544Z,17.13
2023-03-11T14:54:49.911Z,17.31
2023-03-11T14:57:24.517Z,17.59
2023-03-11T14:59:53.191Z,17.53
2023-03-11T15:02:31.973Z,17.54
2023-03-11T15:05:00.701Z,17.64
2023-03-11T15:07:27.574Z,17.19
2023-03-11T15:09:55.744Z,16.62
2023-03-11T15:12:41.590Z,16.40
2023-03-11T15:15:41.035Z,16.21
2023-03-11T15:18:23.879Z,15.27
2023-03-11T15:21:06.070Z,15.48
2023-03-11T15:23:35.243Z,15.07
2023-03-11T15:26:02.403Z,14.97
2023-03-11T15:28:30.214Z,14.97
2023-03-11T15:31:21.878Z,15.22
2023-03-11T15:33:49.703Z,15.24
2023-03-11T15:36:55.517Z,15.25
2023-03-11T15:39:28.839Z,15.59
2023-03-11T15:42:07.382Z,15.42
2023-03-11T15:44:49.641Z,15.38
2023-03-11T15:47:19.335Z,15.42
2023-03-11T15:49:47.044Z,14.98
2023-03-11T15:52:14.249Z,15.36
2023-03-11T15:54:41.078Z,15.47
2023-03-11T15:57:12.751Z,15.57
2023-03-11T15:59:41.223Z,15.48
2023-03-11T16:02:18.996Z,14.98
2023-03-11T16:04:45.799Z,14.81
2023-03-11T16:07:12.477Z,14.80
2023-03-11T16:09:39.165Z,14.43
2023-03-11T16:12:14.631Z,14.41
2023-03-11T16:14:41.233Z,13.59
2023-03-11T16:17:08.145Z,13.75
2023-03-11T16:19:34.757Z,13.64
2023-03-11T16:22:02.779Z,13.55
2023-03-11T16:24:29.428Z,13.81
2023-03-11T16:26:56.887Z,13.53
2023-03-11T16:29:24.110Z,13.10
2023-03-11T16:31:50.795Z,13.00
2023-03-11T16:34:17.699Z,13.77
2023-03-11T16:36:44.422Z,13.53
2023-03-11T16:39:11.131Z,13.54
2023-03-11T16:41:42.131Z,13.31
2023-03-11T16:44:09.872Z,12.44
2023-03-11T16:46:36.800Z,12.43
2023-03-11T16:49:03.978Z,11.94
2023-03-11T16:51:30.633Z,11.79
2023-03-11T16:53:57.238Z,12.07
2023-03-11T16:56:23.972Z,12.06
2023-03-11T16:58:50.761Z,11.54
2023-03-11T17:01:19.096Z,11.47
2023-03-11T17:03:48.789Z,11.50
2023-03-11T17:06:16.332Z,11.06
2023-03-11T17:08:49.096Z,10.80
2023-03-11T17:11:28.422Z,10.84
2023-03-11T17:14:03.284Z,10.38
2023-03-11T17:16:40.567Z,10.53
2023-03-11T17:19:07.251Z,10.79
2023-03-11T17:21:33.882Z,10.45
2023-03-11T17:24:00.531Z,10.20
2023-03-11T17:26:30.868Z,10.23
2023-03-11T17:28:57.602Z,10.30
2023-03-11T17:31:24.279Z,10.04
2023-03-11T17:33:52.593Z,10.03
2023-03-11T17:36:19.672Z,9.97
2023-03-11T17:38:47.050Z,10.13
2023-03-11T17:41:16.035Z,10.11
2023-03-11T17:43:43.383Z,10.03
2023-03-11T17:46:11.624Z,9.83
2023-03-11T17:48:38.363Z,9.72
2023-03-11T17:51:06.302Z,9.95
2023-03-11T17:53:33.427Z,10.07
2023-03-11T17:56:00.138Z,10.78
2023-03-11T17:58:27.131Z,9.96
2023-03-11T18:00:53.727Z,9.86
2023-03-11T18:03:20.418Z,9.79
2023-03-11T18:05:57.265Z,9.57
2023-03-11T18:08:24.351Z,9.58
2023-03-11T18:10:51.846Z,10.03
2023-03-11T18:13:19.289Z,9.42
2023-03-11T18:15:46.381Z,9.23
2023-03-11T18:18:13.292Z,9.46
2023-03-11T18:20:40.231Z,9.70
2023-03-11T18:23:06.838Z,9.98
2023-03-11T18:25:34.061Z,9.76
2023-03-11T18:28:00.637Z,10.14
2023-03-11T18:30:27.345Z,9.95
2023-03-11T18:32:53.966Z,10.19
2023-03-11T18:35:21.628Z,10.12
2023-03-11T18:37:48.249Z,9.32
2023-03-11T18:40:15.031Z,9.81
2023-03-11T18:42:41.887Z,10.18
2023-03-11T18:45:08.868Z,10.04
2023-03-11T18:47:35.733Z,10.28
2023-03-11T18:50:04.404Z,10.39
2023-03-11T18:52:31.167Z,10.12
2023-03-11T18:54:57.816Z,9.84
2023-03-11T18:57:24.608Z,10.22
2023-03-11T18:59:52.058Z,9.86
2023-03-11T19:02:19.018Z,9.45
2023-03-11T19:04:45.700Z,9.87
2023-03-11T19:07:12.508Z,9.36
2023-03-11T19:09:39.153Z,9.44
2023-03-11T19:12:05.901Z,9.56
2023-03-11T19:14:33.102Z,9.91
2023-03-11T19:16:59.796Z,9.46
2023-03-11T19:19:26.586Z,9.50
2023-03-11T19:21:53.428Z,9.68
2023-03-11T19:24:21.053Z,9.26
2023-03-11T19:26:47.844Z,9.75
2023-03-11T19:29:14.824Z,9.97
2023-03-11T19:31:43.446Z,9.90
2023-03-11T19:34:10.170Z,9.96
2023-03-11T19:36:36.700Z,10.37
2023-03-11T19:39:03.619Z,10.05
2023-03-11T19:41:30.309Z,9.94
2023-03-11T19:43:56.950Z,9.93
2023-03-11T19:46:23.776Z,10.16
2023-03-11T19:48:50.865Z,9.95
2023-03-11T19:51:19.139Z,9.65
2023-03-11T19:53:47.078Z,9.85
2023-03-11T19:56:13.876Z,10.02
2023-03-11T19:58:41.648Z,9.62
2023-03-11T20:01:15.218Z,10.07
2023-03-11T20:03:43.024Z,9.82
2023-03-11T20:06:09.752Z,9.91
2023-03-11T20:08:37.807Z,10.15
2023-03-11T20:11:05.617Z,10.58
2023-03-11T20:13:33.731Z,10.42
2023-03-11T20:16:11.294Z,10.25
2023-03-11T20:18:38.187Z,9.62
2023-03-11T20:21:05.924Z,10.43
2023-03-11T20:23:32.964Z,8.91
2023-03-11T20:25:59.624Z,9.69
2023-03-11T20:28:26.314Z,9.52
2023-03-11T20:30:53.559Z,9.17
2023-03-11T20:33:20.502Z,9.10
2023-03-11T20:35:47.402Z,9.54
2023-03-11T20:38:14.268Z,9.45
2023-03-11T20:40:41.029Z,9.32
2023-03-11T20:43:07.771Z,9.25
2023-03-11T20:45:34.479Z,9.65
2023-03-11T20:48:01.340Z,9.96
2023-03-11T20:50:29.012Z,9.82
2023-03-11T20:52:55.975Z,9.42
2023-03-11T20:55:22.896Z,9.71
2023-03-11T20:57:49.624Z,9.29
2023-03-11T21:00:16.489Z,9.07
2023-03-11T21:02:43.754Z,9.36
2023-03-11T21:05:11.535Z,9.05
2023-03-11T21:07:38.545Z,9.88
2023-03-11T21:10:06.868Z,9.79
2023-03-11T21:12:33.564Z,9.78
2023-03-11T21:15:00.634Z,9.33
2023-03-11T21:17:27.428Z,9.21
2023-03-11T21:19:54.199Z,9.61
2023-03-11T21:22:21.039Z,9.65
2023-03-11T21:24:54.948Z,10.18
2023-03-11T21:27:26.202Z,9.75
2023-03-11T21:29:53.971Z,9.41
2023-03-11T21:32:20.872Z,9.69
2023-03-11T21:34:47.745Z,9.81
2023-03-11T21:37:14.575Z,9.94
2023-03-11T21:39:41.432Z,9.57
2023-03-11T21:42:08.104Z,9.19
2023-03-11T21:44:34.926Z,9.63
2023-03-11T21:47:02.195Z,9.96
2023-03-11T21:49:28.996Z,9.34
2023-03-11T21:51:55.939Z,9.63
2023-03-11T21:54:22.730Z,9.41
2023-03-11T21:56:49.775Z,9.85
2023-03-11T21:59:16.408Z,9.37
2023-03-11T22:01:43.207Z,9.30
2023-03-11T22:04:10.218Z,9.59
2023-03-11T22:06:36.861Z,9.84
2023-03-11T22:09:04.276Z,9.78
2023-03-11T22:11:31.203Z,9.25
2023-03-11T22:14:00.990Z,9.52
2023-03-11T22:16:27.744Z,9.46
2023-03-11T22:18:54.586Z,8.86
2023-03-11T22:21:21.768Z,8.80
2023-03-11T22:23:48.821Z,9.18
2023-03-11T22:26:16.059Z,8.80
2023-03-11T22:28:42.834Z,8.88
2023-03-11T22:31:11.589Z,9.18
2023-03-11T22:33:38.424Z,9.20
2023-03-11T22:36:05.673Z,9.15
2023-03-11T22:38:32.873Z,9.38
2023-03-11T22:41:02.470Z,9.17
2023-03-11T22:43:29.145Z,8.76
2023-03-11T22:45:55.757Z,7.84
2023-03-11T22:48:22.479Z,8.68
2023-03-11T22:50:49.106Z,8.76
2023-03-11T22:53:15.893Z,8.17
2023-03-11T22:55:43.638Z,7.90
2023-03-11T22:58:10.564Z,8.51
2023-03-11T23:00:37.210Z,8.21
2023-03-11T23:03:04.520Z,8.57
2023-03-11T23:05:40.761Z,8.00
2023-03-11T23:08:08.389Z,7.98
2023-03-11T23:10:35.018Z,7.71
2023-03-11T23:13:01.728Z,7.70
2023-03-11T23:15:28.530Z,7.68
2023-03-11T23:17:55.250Z,7.92
2023-03-11T23:20:21.905Z,7.05
2023-03-11T23:22:48.634Z,7.14
2023-03-11T23:25:16.016Z,7.76
2023-03-11T23:27:43.753Z,7.31
2023-03-11T23:30:11.687Z,7.13
2023-03-11T23:32:38.362Z,8.11
2023-03-11T23:35:05.465Z,7.90
2023-03-11T23:37:32.147Z,7.40
2023-03-11T23:40:01.123Z,7.79
2023-03-11T23:42:27.783Z,7.80
2023-03-11T23:44:54.469Z,8.29
2023-03-11T23:47:21.376Z,6.98
2023-03-11T23:49:48.076Z,7.49
2023-03-11T23:52:14.663Z,7.69
2023-03-11T23:54:41.424Z,7.50
2023-03-11T23:57:08.166Z,7.69
2023-03-11T23:59:34.985Z,7.04
